Terminal Aerodrome Forecast
Issued by NWS

Home | Current Version | Previous Version | Text Only | Print | Product List | Glossary Off
Versions: 1 2 3 4 5 6 7 8 9 10 11 12 13 14 15

464
FTUS43 KTOP 181700 AAB
TAFMHK
TAF AMD
KMHK 181700Z 1817/1912 31014G22KT P6SM BKN025
     FM181900 31014G22KT P6SM SCT030
     FM190100 34011KT P6SM FEW150
     FM190300 36006KT P6SM FEW250=

USA.gov is the U.S. government's official web portal to all federal, state and local government web resources and services.